createdAt,value
2022-12-24T00:00:06.810Z,2.79
2022-12-24T00:00:38.369Z,3.05
2022-12-24T00:01:09.858Z,2.88
2022-12-24T00:01:41.278Z,2.96
2022-12-24T00:02:12.811Z,3.14
2022-12-24T00:02:44.320Z,3.01
2022-12-24T00:03:15.935Z,2.74
2022-12-24T00:03:47.462Z,2.88
2022-12-24T00:04:18.915Z,2.61
2022-12-24T00:04:53.019Z,2.84
2022-12-24T00:05:28.658Z,2.78
2022-12-24T00:06:00.074Z,2.80
2022-12-24T00:06:31.512Z,2.53
2022-12-24T00:07:02.936Z,2.59
2022-12-24T00:07:34.331Z,2.34
2022-12-24T00:08:05.749Z,3.00
2022-12-24T00:08:37.211Z,2.66
2022-12-24T00:09:08.629Z,2.41
2022-12-24T00:09:40.042Z,2.81
2022-12-24T00:10:11.473Z,2.57
2022-12-24T00:10:43.034Z,2.72
2022-12-24T00:11:14.431Z,2.79
2022-12-24T00:11:45.833Z,2.75
2022-12-24T00:12:17.248Z,3.13
2022-12-24T00:12:48.663Z,2.60
2022-12-24T00:13:20.085Z,2.94
2022-12-24T00:13:51.516Z,3.34
2022-12-24T00:14:22.912Z,2.99
2022-12-24T00:14:54.309Z,3.32
2022-12-24T00:15:25.710Z,3.07
2022-12-24T00:15:57.195Z,2.55
2022-12-24T00:16:28.680Z,2.63
2022-12-24T00:17:00.260Z,2.86
2022-12-24T00:17:31.756Z,2.57
2022-12-24T00:18:03.156Z,2.84
2022-12-24T00:18:38.618Z,3.07
2022-12-24T00:19:13.103Z,2.65
2022-12-24T00:19:44.519Z,2.61
2022-12-24T00:20:15.926Z,2.48
2022-12-24T00:20:47.373Z,2.67
2022-12-24T00:21:19.129Z,2.90
2022-12-24T00:21:50.566Z,2.65
2022-12-24T00:22:21.982Z,2.56
2022-12-24T00:22:53.385Z,2.38
2022-12-24T00:23:24.828Z,2.43
2022-12-24T00:23:56.247Z,2.44
2022-12-24T00:24:27.678Z,2.89
2022-12-24T00:24:59.112Z,2.39
2022-12-24T00:25:30.512Z,2.36
2022-12-24T00:26:01.969Z,2.92
2022-12-24T00:26:33.492Z,2.75
2022-12-24T00:27:04.897Z,2.33
2022-12-24T00:27:36.318Z,2.70
2022-12-24T00:28:07.740Z,2.84
2022-12-24T00:28:39.191Z,2.77
2022-12-24T00:29:10.607Z,2.39
2022-12-24T00:29:42.008Z,2.33
2022-12-24T00:30:13.418Z,2.64
2022-12-24T00:30:44.872Z,2.79
2022-12-24T00:31:16.458Z,3.03
2022-12-24T00:31:48.064Z,2.31
2022-12-24T00:32:19.501Z,2.44
2022-12-24T00:32:50.903Z,2.63
2022-12-24T00:33:24.654Z,2.47
2022-12-24T00:33:56.352Z,2.56
2022-12-24T00:34:27.794Z,2.44
2022-12-24T00:34:59.223Z,2.40
2022-12-24T00:35:30.630Z,2.31
2022-12-24T00:36:02.024Z,2.80
2022-12-24T00:36:33.486Z,2.65
2022-12-24T00:37:04.961Z,3.03
2022-12-24T00:37:36.390Z,2.77
2022-12-24T00:38:07.806Z,2.54
2022-12-24T00:38:39.236Z,2.12
2022-12-24T00:39:10.752Z,2.86
2022-12-24T00:39:42.159Z,2.28
2022-12-24T00:40:13.589Z,2.23
2022-12-24T00:40:44.987Z,2.77
2022-12-24T00:41:16.396Z,2.86
2022-12-24T00:41:47.806Z,2.59
2022-12-24T00:42:19.263Z,3.29
2022-12-24T00:42:50.664Z,2.74
2022-12-24T00:43:22.088Z,2.14
2022-12-24T00:43:53.510Z,2.35
2022-12-24T00:44:24.923Z,2.34
2022-12-24T00:44:56.318Z,2.78
2022-12-24T00:45:27.732Z,2.33
2022-12-24T00:45:59.183Z,2.19
2022-12-24T00:46:30.698Z,2.25
2022-12-24T00:47:05.509Z,2.53
2022-12-24T00:47:41.514Z,2.81
2022-12-24T00:48:12.927Z,2.57
2022-12-24T00:48:44.336Z,2.30
2022-12-24T00:49:15.796Z,2.50
2022-12-24T00:49:47.198Z,2.10
2022-12-24T00:50:18.730Z,2.34
2022-12-24T00:50:50.182Z,2.63
2022-12-24T00:51:21.730Z,2.44
2022-12-24T00:51:53.167Z,2.26
2022-12-24T00:52:24.574Z,2.21
2022-12-24T00:52:56.073Z,2.37
2022-12-24T00:53:27.497Z,2.43
2022-12-24T00:53:58.897Z,2.12
2022-12-24T00:54:30.300Z,2.13
2022-12-24T00:55:01.713Z,2.25
2022-12-24T00:55:33.165Z,2.59
2022-12-24T00:56:04.627Z,2.53
2022-12-24T00:56:36.101Z,2.30
2022-12-24T00:57:07.515Z,2.48
2022-12-24T00:57:38.928Z,2.48
2022-12-24T00:58:10.463Z,2.10
2022-12-24T00:58:41.871Z,2.11
2022-12-24T00:59:13.277Z,2.42
2022-12-24T00:59:44.672Z,2.10
2022-12-24T01:00:16.068Z,2.00
2022-12-24T01:00:47.476Z,2.09
2022-12-24T01:01:19.000Z,2.49
2022-12-24T01:01:50.561Z,2.51
2022-12-24T01:02:22.235Z,2.53
2022-12-24T01:02:53.953Z,2.59
2022-12-24T01:03:25.590Z,2.14
2022-12-24T01:03:57.021Z,2.31
2022-12-24T01:04:28.415Z,1.79
2022-12-24T01:04:59.814Z,2.39
2022-12-24T01:05:31.210Z,2.35
2022-12-24T01:06:02.626Z,1.68
2022-12-24T01:06:34.037Z,2.38
2022-12-24T01:07:05.452Z,2.26
2022-12-24T01:07:36.864Z,2.26
2022-12-24T01:08:08.297Z,2.13
2022-12-24T01:08:39.834Z,2.27
2022-12-24T01:09:11.295Z,2.20
2022-12-24T01:09:42.755Z,1.76
2022-12-24T01:10:14.196Z,2.29
2022-12-24T01:10:45.602Z,1.96
2022-12-24T01:11:17.038Z,1.93
2022-12-24T01:11:48.440Z,1.95
2022-12-24T01:12:19.871Z,2.20
2022-12-24T01:12:51.277Z,1.87
2022-12-24T01:13:22.677Z,2.20
2022-12-24T01:13:54.173Z,2.31
2022-12-24T01:14:25.574Z,1.83
2022-12-24T01:14:56.978Z,2.31
2022-12-24T01:15:28.416Z,1.87
2022-12-24T01:15:59.839Z,2.04
2022-12-24T01:16:31.299Z,1.96
2022-12-24T01:17:02.758Z,1.99
2022-12-24T01:17:34.165Z,1.90
2022-12-24T01:18:05.560Z,1.81
2022-12-24T01:18:36.992Z,2.03
2022-12-24T01:19:08.869Z,2.22
2022-12-24T01:19:40.296Z,2.31
2022-12-24T01:20:11.714Z,1.74
2022-12-24T01:20:43.113Z,2.12
2022-12-24T01:21:14.530Z,2.03
2022-12-24T01:21:45.958Z,1.89
2022-12-24T01:22:17.375Z,2.22
2022-12-24T01:22:48.836Z,2.51
2022-12-24T01:23:20.260Z,1.90
2022-12-24T01:23:51.673Z,2.59
2022-12-24T01:24:23.196Z,1.77
2022-12-24T01:24:54.682Z,2.33
2022-12-24T01:25:26.090Z,2.71
2022-12-24T01:25:57.499Z,2.15
2022-12-24T01:26:28.915Z,2.34
2022-12-24T01:27:00.337Z,2.29
2022-12-24T01:27:31.767Z,2.41
2022-12-24T01:28:03.175Z,2.13
2022-12-24T01:28:34.598Z,1.75
2022-12-24T01:29:05.995Z,1.98
2022-12-24T01:29:37.490Z,2.23
2022-12-24T01:30:08.901Z,2.28
2022-12-24T01:30:40.302Z,2.19
2022-12-24T01:31:11.729Z,2.06
2022-12-24T01:31:43.474Z,2.24
2022-12-24T01:32:14.913Z,2.27
2022-12-24T01:32:46.307Z,2.19
2022-12-24T01:33:17.715Z,2.08
2022-12-24T01:33:49.115Z,2.09
2022-12-24T01:34:20.515Z,1.99
2022-12-24T01:34:52.029Z,2.09
2022-12-24T01:35:23.426Z,1.68
2022-12-24T01:35:54.822Z,2.21
2022-12-24T01:36:26.221Z,1.66
2022-12-24T01:36:57.625Z,1.85
2022-12-24T01:37:29.031Z,1.91
2022-12-24T01:38:00.433Z,1.91
2022-12-24T01:38:31.843Z,2.03
2022-12-24T01:39:03.243Z,1.89
2022-12-24T01:39:34.644Z,1.85
2022-12-24T01:40:06.097Z,1.98
2022-12-24T01:40:37.498Z,2.05
2022-12-24T01:41:08.904Z,1.88
2022-12-24T01:41:40.314Z,2.17
2022-12-24T01:42:11.745Z,1.87
2022-12-24T01:42:43.163Z,1.69
2022-12-24T01:43:14.562Z,1.90
2022-12-24T01:43:45.976Z,1.73
2022-12-24T01:44:17.399Z,1.72
2022-12-24T01:44:48.798Z,1.55
2022-12-24T01:45:20.257Z,2.00
2022-12-24T01:45:51.661Z,1.91
2022-12-24T01:46:23.135Z,1.94
2022-12-24T01:46:54.672Z,1.96
2022-12-24T01:47:26.120Z,1.76
2022-12-24T01:47:57.515Z,2.04
2022-12-24T01:48:28.926Z,1.97
2022-12-24T01:49:00.468Z,1.98
2022-12-24T01:49:31.981Z,1.76
2022-12-24T01:50:03.386Z,1.74
2022-12-24T01:50:34.832Z,1.55
2022-12-24T01:51:06.230Z,2.41
2022-12-24T01:51:37.647Z,1.65
2022-12-24T01:52:09.041Z,1.87
2022-12-24T01:52:40.438Z,1.66
2022-12-24T01:53:11.853Z,2.18
2022-12-24T01:53:43.271Z,1.93
2022-12-24T01:54:14.703Z,2.04
2022-12-24T01:54:46.135Z,2.29
2022-12-24T01:55:17.531Z,1.87
2022-12-24T01:55:49.044Z,1.51
2022-12-24T01:56:20.467Z,1.51
2022-12-24T01:56:51.882Z,1.83
2022-12-24T01:57:24.627Z,1.83
2022-12-24T01:57:56.152Z,1.81
2022-12-24T01:58:27.553Z,1.43
2022-12-24T01:58:58.961Z,1.61
2022-12-24T01:59:30.375Z,1.71
2022-12-24T02:00:01.815Z,1.85
2022-12-24T02:00:33.239Z,1.97
2022-12-24T02:01:04.728Z,1.81
2022-12-24T02:01:36.236Z,1.88
2022-12-24T02:02:07.833Z,1.99
2022-12-24T02:02:39.392Z,1.60
2022-12-24T02:03:10.919Z,1.92
2022-12-24T02:03:42.391Z,1.81
2022-12-24T02:04:13.841Z,1.78
2022-12-24T02:04:45.245Z,1.63
2022-12-24T02:05:16.655Z,1.65
2022-12-24T02:05:48.203Z,1.58
2022-12-24T02:06:19.633Z,1.77
2022-12-24T02:06:51.041Z,1.91
2022-12-24T02:07:22.462Z,1.63
2022-12-24T02:07:53.880Z,1.62
2022-12-24T02:08:25.269Z,1.85
2022-12-24T02:08:56.691Z,1.72
2022-12-24T02:09:28.117Z,1.70
2022-12-24T02:09:59.545Z,1.60
2022-12-24T02:10:30.966Z,1.84
2022-12-24T02:11:02.366Z,2.00
2022-12-24T02:11:33.843Z,1.91
2022-12-24T02:12:05.271Z,1.39
2022-12-24T02:12:36.673Z,1.78
2022-12-24T02:13:08.087Z,1.93
2022-12-24T02:13:39.512Z,1.85
2022-12-24T02:14:10.939Z,1.80
2022-12-24T02:14:42.357Z,1.90
2022-12-24T02:15:13.756Z,1.44
2022-12-24T02:15:45.210Z,1.94
2022-12-24T02:16:16.695Z,1.74
2022-12-24T02:16:48.194Z,2.03
2022-12-24T02:17:19.594Z,1.50
2022-12-24T02:17:51.030Z,1.91
2022-12-24T02:18:22.437Z,1.32
2022-12-24T02:18:53.831Z,1.96
2022-12-24T02:19:25.249Z,2.12
2022-12-24T02:19:56.644Z,1.60
2022-12-24T02:20:28.051Z,1.66
2022-12-24T02:20:59.450Z,1.73
2022-12-24T02:21:30.853Z,1.39
2022-12-24T02:22:02.353Z,1.21
2022-12-24T02:22:33.751Z,1.40
2022-12-24T02:23:05.159Z,1.68
2022-12-24T02:23:36.565Z,1.48
2022-12-24T02:24:08.126Z,1.85
2022-12-24T02:24:39.551Z,1.69
2022-12-24T02:25:10.958Z,1.30
2022-12-24T02:25:42.375Z,1.70
2022-12-24T02:26:13.807Z,1.83
2022-12-24T02:26:45.204Z,1.88
2022-12-24T02:27:16.751Z,1.43
2022-12-24T02:27:48.182Z,1.38
2022-12-24T02:28:19.593Z,1.29
2022-12-24T02:28:51.003Z,2.04
2022-12-24T02:29:22.427Z,2.51
2022-12-24T02:29:53.826Z,1.62
2022-12-24T02:30:25.224Z,1.51
2022-12-24T02:30:56.705Z,1.40
2022-12-24T02:31:28.163Z,1.62
2022-12-24T02:31:59.608Z,1.41
2022-12-24T02:32:31.062Z,1.79
2022-12-24T02:33:02.466Z,1.58
2022-12-24T02:33:33.870Z,1.58
2022-12-24T02:34:05.270Z,1.65
2022-12-24T02:34:36.684Z,1.55
2022-12-24T02:35:08.087Z,1.36
2022-12-24T02:35:39.492Z,1.44
2022-12-24T02:36:10.934Z,1.05
2022-12-24T02:36:42.356Z,1.34
2022-12-24T02:37:13.765Z,1.50
2022-12-24T02:37:45.210Z,1.69
2022-12-24T02:38:16.731Z,1.74
2022-12-24T02:38:48.169Z,1.67
2022-12-24T02:39:19.580Z,1.70
2022-12-24T02:39:50.980Z,1.43
2022-12-24T02:40:22.384Z,1.32
2022-12-24T02:40:53.801Z,2.02
2022-12-24T02:41:25.208Z,1.84
2022-12-24T02:41:56.648Z,1.44
2022-12-24T02:42:28.046Z,1.34
2022-12-24T02:42:59.515Z,1.30
2022-12-24T02:43:30.938Z,1.58
2022-12-24T02:44:02.349Z,1.66
2022-12-24T02:44:33.749Z,1.83
2022-12-24T02:45:05.171Z,1.51
2022-12-24T02:45:36.574Z,1.61
2022-12-24T02:46:08.007Z,1.88
2022-12-24T02:46:39.516Z,1.52
2022-12-24T02:47:11.017Z,1.70
2022-12-24T02:47:42.490Z,1.08
2022-12-24T02:48:13.994Z,1.41
2022-12-24T02:48:45.395Z,1.69
2022-12-24T02:49:16.869Z,1.70
2022-12-24T02:49:48.282Z,1.87
2022-12-24T02:50:19.689Z,1.53
2022-12-24T02:50:51.120Z,1.61
2022-12-24T02:51:22.520Z,1.55
2022-12-24T02:51:53.919Z,1.46
2022-12-24T02:52:25.315Z,1.52
2022-12-24T02:52:56.732Z,1.52
2022-12-24T02:53:28.247Z,1.49
2022-12-24T02:53:59.665Z,1.60
2022-12-24T02:54:31.062Z,1.49
2022-12-24T02:55:02.639Z,1.67
2022-12-24T02:55:34.117Z,1.60
2022-12-24T02:56:05.573Z,1.07
2022-12-24T02:56:37.043Z,1.41
2022-12-24T02:57:08.483Z,1.87
2022-12-24T02:57:39.896Z,1.38
2022-12-24T02:58:11.294Z,1.25
2022-12-24T02:58:42.841Z,1.45
2022-12-24T02:59:14.251Z,1.39
2022-12-24T02:59:45.675Z,1.49
2022-12-24T03:00:17.087Z,1.66
2022-12-24T03:00:48.540Z,1.17
2022-12-24T03:01:20.049Z,1.37
2022-12-24T03:01:51.575Z,1.76
2022-12-24T03:02:23.152Z,1.21
2022-12-24T03:02:54.724Z,1.54
2022-12-24T03:03:26.156Z,1.79
2022-12-24T03:03:57.602Z,1.55
2022-12-24T03:04:29.020Z,1.34
2022-12-24T03:05:00.417Z,1.18
2022-12-24T03:05:31.842Z,1.31
2022-12-24T03:06:03.247Z,1.35
2022-12-24T03:06:34.643Z,1.45
2022-12-24T03:07:06.059Z,1.64
2022-12-24T03:07:37.480Z,1.48
2022-12-24T03:08:08.887Z,1.54
2022-12-24T03:08:40.281Z,1.19
2022-12-24T03:09:11.887Z,1.48
2022-12-24T03:09:43.301Z,1.24
2022-12-24T03:10:14.698Z,1.22
2022-12-24T03:10:46.095Z,1.54
2022-12-24T03:11:17.555Z,1.04
2022-12-24T03:11:48.958Z,1.26
2022-12-24T03:12:20.373Z,1.56
2022-12-24T03:12:51.788Z,1.72
2022-12-24T03:13:23.193Z,1.55
2022-12-24T03:13:54.631Z,1.22
2022-12-24T03:14:26.137Z,1.55
2022-12-24T03:14:57.562Z,1.44
2022-12-24T03:15:28.957Z,1.35
2022-12-24T03:16:00.421Z,1.30
2022-12-24T03:16:31.894Z,1.29
2022-12-24T03:17:03.345Z,1.48
2022-12-24T03:17:34.741Z,1.31
2022-12-24T03:18:06.134Z,1.26
2022-12-24T03:18:37.535Z,1.88
2022-12-24T03:19:09.249Z,1.44
2022-12-24T03:19:40.726Z,1.68
2022-12-24T03:20:12.118Z,1.48
2022-12-24T03:20:43.518Z,1.47
2022-12-24T03:21:14.917Z,1.46
2022-12-24T03:21:46.317Z,1.66
2022-12-24T03:22:17.710Z,1.24
2022-12-24T03:22:49.136Z,0.95
2022-12-24T03:23:20.559Z,1.61
2022-12-24T03:23:52.069Z,1.37
2022-12-24T03:24:23.465Z,1.60
2022-12-24T03:24:54.932Z,1.28
2022-12-24T03:25:26.325Z,1.22
2022-12-24T03:25:57.742Z,1.21
2022-12-24T03:26:29.142Z,1.32
2022-12-24T03:27:00.580Z,1.23
2022-12-24T03:27:32.018Z,1.56
2022-12-24T03:28:03.434Z,1.34
2022-12-24T03:28:34.826Z,1.57
2022-12-24T03:29:06.241Z,1.54
2022-12-24T03:29:37.649Z,1.58
2022-12-24T03:30:09.140Z,1.66
2022-12-24T03:30:40.539Z,1.21
2022-12-24T03:31:11.997Z,1.23
2022-12-24T03:31:43.550Z,1.53
2022-12-24T03:32:15.010Z,1.05
2022-12-24T03:32:46.418Z,1.43
2022-12-24T03:33:17.805Z,1.40
2022-12-24T03:33:49.276Z,1.59
2022-12-24T03:34:20.695Z,1.34
2022-12-24T03:34:52.094Z,1.34
2022-12-24T03:35:23.589Z,1.38
2022-12-24T03:35:55.015Z,1.44
2022-12-24T03:36:26.435Z,1.56
2022-12-24T03:36:57.862Z,1.91
2022-12-24T03:37:29.261Z,1.93
2022-12-24T03:38:00.659Z,1.68
2022-12-24T03:38:32.084Z,1.32
2022-12-24T03:39:03.478Z,1.34
2022-12-24T03:39:34.866Z,1.04
2022-12-24T03:40:06.275Z,1.23
2022-12-24T03:40:37.792Z,1.22
2022-12-24T03:41:09.374Z,1.06
2022-12-24T03:41:40.774Z,1.66
2022-12-24T03:42:12.262Z,1.87
2022-12-24T03:42:43.665Z,1.34
2022-12-24T03:43:15.084Z,1.16
2022-12-24T03:43:46.500Z,1.35
2022-12-24T03:44:17.960Z,1.01
2022-12-24T03:44:49.396Z,1.11
2022-12-24T03:45:20.814Z,1.16
2022-12-24T03:45:52.463Z,1.26
2022-12-24T03:46:24.051Z,1.48
2022-12-24T03:46:55.535Z,1.32
2022-12-24T03:47:27.018Z,1.46
2022-12-24T03:47:58.431Z,1.41
2022-12-24T03:48:32.843Z,1.48
2022-12-24T03:49:04.494Z,1.35
2022-12-24T03:49:35.917Z,1.18
2022-12-24T03:50:07.332Z,1.60
2022-12-24T03:50:38.754Z,1.34
2022-12-24T03:51:10.281Z,1.28
2022-12-24T03:51:41.700Z,1.64
2022-12-24T03:52:13.107Z,1.34
2022-12-24T03:52:44.513Z,1.16
2022-12-24T03:53:15.924Z,1.27
2022-12-24T03:53:47.341Z,1.27
2022-12-24T03:54:18.754Z,1.12
2022-12-24T03:54:50.184Z,1.30
2022-12-24T03:55:21.636Z,1.36
2022-12-24T03:55:53.032Z,1.50
2022-12-24T03:56:24.548Z,1.42
2022-12-24T03:56:56.024Z,1.23
2022-12-24T03:57:27.451Z,1.72
2022-12-24T03:57:58.880Z,1.63
2022-12-24T03:58:30.327Z,1.42
2022-12-24T03:59:01.744Z,1.07
2022-12-24T03:59:33.165Z,1.14
2022-12-24T04:00:04.578Z,1.15
2022-12-24T04:00:35.984Z,1.23
2022-12-24T04:01:07.515Z,1.29
2022-12-24T04:01:39.063Z,1.55
2022-12-24T04:02:10.772Z,1.21
2022-12-24T04:02:42.497Z,1.35
2022-12-24T04:03:14.012Z,1.70
2022-12-24T04:03:45.533Z,1.32
2022-12-24T04:04:16.986Z,0.92
2022-12-24T04:04:48.472Z,1.16
2022-12-24T04:05:19.896Z,1.16
2022-12-24T04:05:51.308Z,1.19
2022-12-24T04:06:22.738Z,1.20
2022-12-24T04:06:54.202Z,1.06
2022-12-24T04:07:25.603Z,1.11
2022-12-24T04:07:57.020Z,1.05
2022-12-24T04:08:28.446Z,0.91
2022-12-24T04:08:59.853Z,0.87
2022-12-24T04:09:31.416Z,1.41
2022-12-24T04:10:02.829Z,1.62
2022-12-24T04:10:34.232Z,1.37
2022-12-24T04:11:09.718Z,1.29
2022-12-24T04:11:41.576Z,1.13
2022-12-24T04:12:13.089Z,1.10
2022-12-24T04:12:44.530Z,1.14
2022-12-24T04:13:15.935Z,1.18
2022-12-24T04:13:47.351Z,1.34
2022-12-24T04:14:18.776Z,1.24
2022-12-24T04:14:50.192Z,1.25
2022-12-24T04:15:21.607Z,1.12
2022-12-24T04:15:53.018Z,1.50
2022-12-24T04:16:24.536Z,1.24
2022-12-24T04:16:56.040Z,0.96
2022-12-24T04:17:27.536Z,1.23
2022-12-24T04:17:58.939Z,1.27
2022-12-24T04:18:30.354Z,1.12
2022-12-24T04:19:01.758Z,1.33
2022-12-24T04:19:33.232Z,1.25
2022-12-24T04:20:04.696Z,0.96
2022-12-24T04:20:36.125Z,1.05
2022-12-24T04:21:07.527Z,1.03
2022-12-24T04:21:38.925Z,1.00
2022-12-24T04:22:10.354Z,0.97
2022-12-24T04:22:41.807Z,1.34
2022-12-24T04:23:13.231Z,1.27
2022-12-24T04:23:44.629Z,1.23
2022-12-24T04:24:16.057Z,0.92
2022-12-24T04:24:47.474Z,1.41
2022-12-24T04:25:18.871Z,0.98
2022-12-24T04:25:50.274Z,1.10
2022-12-24T04:26:21.689Z,1.45
2022-12-24T04:26:53.083Z,1.34
2022-12-24T04:27:30.150Z,1.29
2022-12-24T04:28:02.224Z,0.90
2022-12-24T04:28:33.659Z,1.05
2022-12-24T04:29:05.087Z,1.05
2022-12-24T04:29:36.502Z,0.83
2022-12-24T04:30:07.912Z,1.19
2022-12-24T04:30:39.341Z,1.16
2022-12-24T04:31:10.772Z,0.97
2022-12-24T04:31:42.230Z,0.86
2022-12-24T04:32:13.737Z,0.72
2022-12-24T04:32:45.168Z,0.87
2022-12-24T04:33:16.682Z,1.02
2022-12-24T04:33:48.074Z,0.89
2022-12-24T04:34:19.486Z,1.04
2022-12-24T04:34:50.894Z,1.09
2022-12-24T04:35:22.286Z,1.25
2022-12-24T04:35:53.687Z,1.23
2022-12-24T04:36:25.147Z,1.22
2022-12-24T04:36:56.615Z,1.42
2022-12-24T04:37:28.023Z,0.94
2022-12-24T04:37:59.419Z,0.93
2022-12-24T04:38:31.003Z,1.02
2022-12-24T04:39:02.449Z,0.91
2022-12-24T04:39:33.842Z,1.06
2022-12-24T04:40:05.236Z,0.94
2022-12-24T04:40:36.636Z,1.08
2022-12-24T04:41:08.051Z,1.19
2022-12-24T04:41:39.497Z,0.81
2022-12-24T04:42:10.951Z,1.02
2022-12-24T04:42:42.387Z,1.13
2022-12-24T04:43:13.804Z,0.92
2022-12-24T04:43:45.304Z,0.98
2022-12-24T04:44:16.700Z,1.15
2022-12-24T04:44:48.116Z,1.17
2022-12-24T04:45:19.513Z,0.95
2022-12-24T04:45:50.959Z,1.31
2022-12-24T04:46:22.561Z,1.18
2022-12-24T04:46:54.101Z,1.18
2022-12-24T04:47:25.501Z,1.05
2022-12-24T04:47:56.922Z,0.85
2022-12-24T04:48:28.347Z,1.05
2022-12-24T04:48:59.830Z,1.10
2022-12-24T04:49:31.256Z,1.09
2022-12-24T04:50:02.676Z,0.93
2022-12-24T04:50:34.071Z,0.92
2022-12-24T04:51:05.511Z,1.04
2022-12-24T04:51:36.981Z,1.29
2022-12-24T04:52:08.377Z,1.06
2022-12-24T04:52:39.854Z,0.79
2022-12-24T04:53:11.275Z,1.08
2022-12-24T04:53:42.680Z,1.26
2022-12-24T04:54:14.134Z,0.89
2022-12-24T04:54:45.563Z,1.43
2022-12-24T04:55:16.979Z,1.26
2022-12-24T04:55:48.408Z,1.32
2022-12-24T04:56:19.857Z,1.22
2022-12-24T04:56:51.305Z,1.08
2022-12-24T04:57:22.715Z,1.00
2022-12-24T04:57:54.147Z,1.06
2022-12-24T04:58:25.556Z,1.10
2022-12-24T04:58:56.949Z,0.92
2022-12-24T04:59:28.441Z,1.15
2022-12-24T04:59:59.842Z,1.07
2022-12-24T05:00:31.250Z,0.98
2022-12-24T05:01:02.765Z,1.27
2022-12-24T05:01:34.445Z,1.12
2022-12-24T05:02:06.078Z,0.87
2022-12-24T05:02:37.785Z,0.85
2022-12-24T05:03:09.397Z,1.02
2022-12-24T05:03:40.771Z,1.20
2022-12-24T05:04:12.174Z,1.34
2022-12-24T05:04:43.673Z,1.08
2022-12-24T05:05:15.094Z,0.78
2022-12-24T05:05:46.505Z,0.96
2022-12-24T05:06:17.968Z,0.90
2022-12-24T05:06:49.375Z,1.18
2022-12-24T05:07:20.820Z,1.04
2022-12-24T05:07:52.224Z,1.02
2022-12-24T05:08:23.651Z,1.20
2022-12-24T05:08:55.061Z,0.84
2022-12-24T05:09:26.474Z,0.84
2022-12-24T05:09:57.966Z,1.13
2022-12-24T05:10:29.375Z,0.78
2022-12-24T05:11:00.777Z,0.74
2022-12-24T05:11:32.226Z,1.02
2022-12-24T05:12:03.628Z,0.81
2022-12-24T05:12:35.030Z,0.70
2022-12-24T05:13:06.431Z,0.90
2022-12-24T05:13:44.338Z,0.90
2022-12-24T05:14:17.820Z,1.07
2022-12-24T05:14:49.222Z,0.95
2022-12-24T05:15:20.736Z,1.00
2022-12-24T05:15:52.139Z,0.83
2022-12-24T05:16:23.645Z,0.85
2022-12-24T05:16:55.169Z,0.83
2022-12-24T05:17:26.596Z,0.79
2022-12-24T05:17:58.013Z,1.16
2022-12-24T05:18:29.430Z,1.17
2022-12-24T05:19:00.839Z,1.13
2022-12-24T05:19:32.271Z,1.22
2022-12-24T05:20:03.669Z,1.21
2022-12-24T05:20:35.210Z,0.86
2022-12-24T05:21:06.621Z,1.04
2022-12-24T05:21:38.046Z,0.87
2022-12-24T05:22:09.534Z,0.97
2022-12-24T05:22:41.099Z,0.84
2022-12-24T05:23:12.519Z,0.83
2022-12-24T05:23:43.917Z,0.89
2022-12-24T05:24:15.325Z,0.85
2022-12-24T05:24:46.727Z,0.90
2022-12-24T05:25:18.121Z,0.82
2022-12-24T05:25:49.589Z,0.78
2022-12-24T05:26:21.391Z,0.87
2022-12-24T05:26:52.891Z,0.99
2022-12-24T05:27:25.007Z,1.15
2022-12-24T05:27:56.414Z,1.22
2022-12-24T05:28:27.831Z,0.91
2022-12-24T05:28:59.280Z,0.86
2022-12-24T05:29:30.685Z,0.84
2022-12-24T05:30:02.090Z,1.03
2022-12-24T05:30:33.537Z,0.73
2022-12-24T05:31:05.092Z,1.02
2022-12-24T05:31:36.556Z,1.08
2022-12-24T05:32:07.953Z,1.05
2022-12-24T05:32:39.350Z,1.05
2022-12-24T05:33:10.746Z,1.08
2022-12-24T05:33:42.163Z,0.93
2022-12-24T05:34:14.061Z,1.42
2022-12-24T05:34:45.475Z,1.03
2022-12-24T05:35:16.895Z,0.76
2022-12-24T05:35:48.293Z,0.81
2022-12-24T05:36:19.739Z,1.20
2022-12-24T05:36:51.145Z,0.93
2022-12-24T05:37:22.586Z,1.23
2022-12-24T05:37:53.984Z,0.87
2022-12-24T05:38:25.399Z,0.93
2022-12-24T05:38:56.828Z,0.77
2022-12-24T05:39:28.233Z,0.91
2022-12-24T05:39:59.625Z,0.83
2022-12-24T05:40:31.025Z,1.09
2022-12-24T05:41:02.429Z,0.89
2022-12-24T05:41:33.909Z,0.99
2022-12-24T05:42:05.322Z,1.17
2022-12-24T05:42:36.879Z,0.65
2022-12-24T05:43:08.302Z,1.07
2022-12-24T05:43:39.708Z,0.96
2022-12-24T05:44:11.133Z,0.72
2022-12-24T05:44:42.624Z,0.77
2022-12-24T05:45:14.016Z,0.66
2022-12-24T05:45:45.445Z,0.82
2022-12-24T05:46:16.945Z,0.74
2022-12-24T05:46:48.557Z,0.69
2022-12-24T05:47:20.044Z,0.78
2022-12-24T05:47:51.440Z,0.69
2022-12-24T05:48:22.857Z,0.86
2022-12-24T05:48:54.259Z,0.68
2022-12-24T05:49:25.675Z,1.14
2022-12-24T05:49:57.090Z,0.95
2022-12-24T05:50:28.494Z,0.89
2022-12-24T05:50:59.896Z,0.89
2022-12-24T05:51:31.299Z,0.77
2022-12-24T05:52:02.830Z,0.93
2022-12-24T05:52:34.247Z,1.10
2022-12-24T05:53:05.655Z,1.06
2022-12-24T05:53:37.045Z,0.89
2022-12-24T05:54:08.457Z,0.69
2022-12-24T05:54:39.874Z,0.86
2022-12-24T05:55:11.313Z,0.54
2022-12-24T05:55:42.751Z,0.77
2022-12-24T05:56:14.180Z,0.71
2022-12-24T05:56:45.590Z,0.87
2022-12-24T05:57:17.119Z,1.15
2022-12-24T05:57:48.550Z,1.07
2022-12-24T05:58:19.950Z,0.63
2022-12-24T05:58:51.378Z,0.73
2022-12-24T05:59:22.769Z,0.80
2022-12-24T05:59:54.162Z,0.92
2022-12-24T06:00:25.559Z,0.81
2022-12-24T06:00:56.953Z,0.75
2022-12-24T06:01:28.437Z,0.72
2022-12-24T06:02:00.004Z,0.74
2022-12-24T06:02:31.638Z,0.58
2022-12-24T06:03:03.104Z,1.06
2022-12-24T06:03:34.549Z,1.07
2022-12-24T06:04:06.099Z,1.12
2022-12-24T06:04:37.640Z,0.92
2022-12-24T06:05:09.162Z,0.77
2022-12-24T06:05:40.612Z,0.92
2022-12-24T06:06:12.019Z,0.98
2022-12-24T06:06:43.463Z,0.82
2022-12-24T06:07:14.862Z,0.68
2022-12-24T06:07:46.337Z,0.90
2022-12-24T06:08:17.729Z,0.70
2022-12-24T06:08:49.127Z,0.95
2022-12-24T06:09:20.725Z,0.84
2022-12-24T06:09:52.157Z,0.85
2022-12-24T06:10:23.570Z,0.84
2022-12-24T06:10:55.058Z,0.67
2022-12-24T06:11:26.467Z,0.51
2022-12-24T06:11:57.935Z,1.12
2022-12-24T06:12:29.348Z,1.13
2022-12-24T06:13:00.864Z,0.71
2022-12-24T06:13:32.266Z,0.80
2022-12-24T06:14:03.676Z,0.81
2022-12-24T06:14:35.075Z,0.86
2022-12-24T06:15:06.484Z,0.60
2022-12-24T06:15:37.899Z,1.02
2022-12-24T06:16:09.492Z,0.88
2022-12-24T06:16:41.110Z,0.98
2022-12-24T06:17:12.528Z,0.80
2022-12-24T06:17:44.002Z,0.45
2022-12-24T06:18:15.435Z,0.78
2022-12-24T06:18:46.843Z,0.74
2022-12-24T06:19:18.256Z,0.82
2022-12-24T06:19:49.651Z,0.97
2022-12-24T06:20:21.046Z,1.10
2022-12-24T06:20:52.442Z,1.02
2022-12-24T06:21:23.841Z,0.82
2022-12-24T06:21:55.267Z,1.01
2022-12-24T06:22:26.657Z,0.86
2022-12-24T06:22:58.057Z,0.79
2022-12-24T06:23:29.549Z,0.97
2022-12-24T06:24:00.959Z,0.81
2022-12-24T06:24:32.357Z,0.81
2022-12-24T06:25:03.804Z,0.83
2022-12-24T06:25:35.281Z,0.71
2022-12-24T06:26:06.694Z,0.57
2022-12-24T06:26:38.093Z,0.85
2022-12-24T06:27:09.496Z,0.65
2022-12-24T06:27:40.898Z,0.77
2022-12-24T06:28:12.322Z,0.73
2022-12-24T06:28:43.849Z,1.03
2022-12-24T06:29:15.280Z,0.92
2022-12-24T06:29:46.699Z,0.84
2022-12-24T06:30:18.774Z,0.73
2022-12-24T06:30:50.419Z,0.78
2022-12-24T06:31:21.951Z,0.79
2022-12-24T06:31:53.528Z,0.74
2022-12-24T06:32:24.967Z,1.07
2022-12-24T06:32:56.389Z,0.82
2022-12-24T06:33:27.801Z,0.86
2022-12-24T06:33:59.328Z,0.85
2022-12-24T06:34:30.749Z,0.72
2022-12-24T06:35:02.156Z,0.78
2022-12-24T06:35:33.583Z,0.91
2022-12-24T06:36:05.049Z,0.62
2022-12-24T06:36:36.447Z,0.61
2022-12-24T06:37:07.847Z,0.81
2022-12-24T06:37:39.238Z,0.87
2022-12-24T06:38:10.654Z,0.79
2022-12-24T06:38:42.059Z,1.06
2022-12-24T06:39:13.597Z,0.88
2022-12-24T06:39:44.991Z,0.96
2022-12-24T06:40:16.485Z,0.82
2022-12-24T06:40:47.899Z,0.74
2022-12-24T06:41:19.295Z,1.00
2022-12-24T06:41:50.691Z,0.80
2022-12-24T06:42:22.118Z,0.62
2022-12-24T06:42:53.515Z,0.65
2022-12-24T06:43:24.914Z,0.63
2022-12-24T06:43:56.389Z,0.77
2022-12-24T06:44:27.852Z,0.67
2022-12-24T06:45:05.573Z,0.93
2022-12-24T06:45:39.442Z,0.65
2022-12-24T06:46:10.896Z,0.73
2022-12-24T06:46:42.463Z,0.68
2022-12-24T06:47:13.953Z,0.72
2022-12-24T06:47:45.369Z,0.70
2022-12-24T06:48:16.841Z,0.97
2022-12-24T06:48:48.258Z,0.75
2022-12-24T06:49:19.874Z,0.86
2022-12-24T06:49:51.273Z,0.71
2022-12-24T06:50:22.671Z,0.88
2022-12-24T06:50:54.065Z,0.79
2022-12-24T06:51:25.474Z,0.91
2022-12-24T06:51:56.869Z,0.87
2022-12-24T06:52:28.265Z,0.92
2022-12-24T06:52:59.884Z,0.84
2022-12-24T06:53:31.354Z,0.85
2022-12-24T06:54:02.749Z,0.65
2022-12-24T06:54:34.245Z,0.85
2022-12-24T06:55:05.710Z,0.87
2022-12-24T06:55:37.139Z,0.66
2022-12-24T06:56:08.573Z,0.78
2022-12-24T06:56:39.990Z,0.89
2022-12-24T06:57:11.396Z,0.89
2022-12-24T06:57:42.793Z,0.68
2022-12-24T06:58:14.194Z,0.75
2022-12-24T06:58:45.610Z,0.66
2022-12-24T06:59:17.029Z,0.56